KMSY/MSY METAR and TAF weather

Enter ICAO airport designator
Station Type Date Time Source
KMSY METAR 2019/04/25 11:53 UTC NOAA

KMSY 251153Z 15009KT 10SM FEW015 OVC180 22/20 A2983 RMK AO2 SLP106 T02220200 10222 20211 55006


Station Type Date Time Source
KMSY Decoded METAR 2019/04/25 11:53 UTC NOAA

NEW ORLEANS INTERNATIONAL AIRPORT, LA, United States (KMSY) 30-00N 90-15W 5M
Apr 25, 2019 - 07:53 AM EDT / 2019.04.25 1153 UTC
Wind: from the SSE (150 degrees) at 10 MPH (9 KT):0
Visibility: 10 mile(s):0
Sky conditions: overcast
Temperature: 72.0 F (22.2 C)
Dew Point: 68.0 F (20.0 C)
Relative Humidity: 87%
Pressure (altimeter): 29.83 in. Hg (1010 hPa)
Pressure tendency: 0.02 inches (0.6 hPa) lower than three hours ago
ob: KMSY 251153Z 15009KT 10SM FEW015 OVC180 22/20 A2983 RMK AO2 SLP106 T02220200 10222 20211 55006
cycle: 12

Station Type Date Time Source
KMSY TAF 2019/04/25 12:39 UTC NOAA

TAF KMSY 251137Z 2512/2618 15009KT P6SM FEW040 OVC180
FM251500 17010KT P6SM +SHRA SCT020 OVC030
TEMPO 2515/2519 4SM +TSRA BKN020CB
FM252300 22010KT P6SM +SHRA VCTS FEW015CB SCT060
FM260800 30008KT P6SM FEW050 FEW250

Example: see airport list